Time;durP1;ratioP1;P1;durP2;ratioP2;P2;SDS_P1;SDS_P2;PMS_P1;PMS_P2;Temp;Humidity;BMP_temperature;BMP_pressure;BME280_temperature;BME280_humidity;BME280_pressure;Samples;Min_cycle;Max_cycle;Signal;HPM_P1;HPM_P2
2022/10/09 00:01:45;;;;;;;;;;;;;;;;;;5095798;28;19920;-83
2022/10/09 00:04:11;;;;;;;;;;;;;;;;;;5085332;28;20379;-83
2022/10/09 00:06:38;;;;;;;;;;;;;;;;;;5108644;28;19947;-83
2022/10/09 00:09:04;;;;;;;;;;;;;;;;;;5106589;28;19959;-83
2022/10/09 00:11:30;;;;;;;;;;;;;;;;;;5086079;28;19958;-84
2022/10/09 00:13:57;;;;;;;;;;;;;;;;;;5107003;28;20033;-83
2022/10/09 00:16:23;;;;;;;;;;;;;;;;;;5099297;28;19924;-83
2022/10/09 00:18:49;;;;;;;;;;;;;;;;;;5100202;28;19963;-82
2022/10/09 00:21:15;;;;;;;;;;;;;;;;;;5104220;28;20351;-83
2022/10/09 00:23:41;;;;;;;;;;;;;;;;;;5101139;28;19963;-83
2022/10/09 00:26:07;;;;;;;;;;;;;;;;;;5096924;28;21729;-83
2022/10/09 00:28:34;;;;;;;;;;;;;;;;;;5095164;28;19963;-84
2022/10/09 00:31:00;;;;;;;;;;;;;;;;;;5088627;28;19916;-83
2022/10/09 00:33:26;;;;;;;;;;;;;;;;;;5105076;28;19967;-82
2022/10/09 00:35:52;;;;;;;;;;;;;;;;;;5104187;28;19970;-82
2022/10/09 00:38:18;;;;;;;;;;;;;;;;;;5104635;28;20442;-81
2022/10/09 00:40:45;;;;;;;;;;;;;;;;;;5098293;28;19959;-80
2022/10/09 00:43:11;;;;;;;;;;;;;;;;;;5095550;28;19999;-81
2022/10/09 00:45:37;;;;;;;;;;;;;;;;;;5077274;28;19944;-81
2022/10/09 00:48:03;;;;;;;;;;;;;;;;;;5099645;28;19951;-82
2022/10/09 00:50:29;;;;;;;;;;;;;;;;;;5100904;28;19954;-84
2022/10/09 00:52:55;;;;;;;;;;;;;;;;;;5105056;28;19958;-81
2022/10/09 00:55:22;;;;;;;;;;;;;;;;;;5107064;28;19981;-81
2022/10/09 00:57:48;;;;;;;;;;;;;;;;;;5100559;28;19963;-80
2022/10/09 01:00:14;;;;;;;;;;;;;;;;;;5097872;28;19955;-82
2022/10/09 01:02:40;;;;;;;;;;;;;;;;;;5102643;28;19943;-83
2022/10/09 01:05:06;;;;;;;;;;;;;;;;;;5103362;28;20340;-82
2022/10/09 01:07:33;;;;;;;;;;;;;;;;;;5094621;28;20033;-83
2022/10/09 01:09:59;;;;;;;;;;;;;;;;;;5097742;28;19966;-83
2022/10/09 01:12:25;;;;;;;;;;;;;;;;;;5106107;28;19959;-82
2022/10/09 01:14:51;;;;;;;;;;;;;;;;;;5104510;28;19966;-82
2022/10/09 01:17:18;;;;;;;;;;;;;;;;;;5095190;28;20012;-83
2022/10/09 01:19:44;;;;;;;;;;;;;;;;;;5102117;28;19959;-83
2022/10/09 01:22:10;;;;;;;;;;;;;;;;;;5098191;28;19958;-82
2022/10/09 01:24:37;;;;;;;;;;;;;;;;;;5099291;28;20343;-82
2022/10/09 01:27:03;;;;;;;;;;;;;;;;;;5093913;28;19959;-82
2022/10/09 01:29:29;;;;;;;;;;;;;;;;;;5095022;28;20737;-83
2022/10/09 01:31:55;;;;;;;;;;;;;;;;;;5094151;28;19955;-81
2022/10/09 01:34:21;;;;;;;;;;;;;;;;;;5088266;28;20420;-82
2022/10/09 01:36:47;;;;;;;;;;;;;;;;;;5097439;28;19971;-82
2022/10/09 01:39:14;;;;;;;;;;;;;;;;;;5096044;28;19952;-83
2022/10/09 01:41:40;;;;;;;;;;;;;;;;;;5098429;28;19998;-83
2022/10/09 01:44:06;;;;;;;;;;;;;;;;;;5098412;28;20363;-82
2022/10/09 01:46:32;;;;;;;;;;;;;;;;;;5099598;28;19961;-82
2022/10/09 01:48:58;;;;;;;;;;;;;;;;;;5078682;28;19955;-83
2022/10/09 01:51:25;;;;;;;;;;;;;;;;;;5099196;28;19955;-83
2022/10/09 01:53:51;;;;;;;;;;;;;;;;;;5101117;28;20589;-83
2022/10/09 01:56:17;;;;;;;;;;;;;;;;;;5104839;28;19970;-82
2022/10/09 01:58:44;;;;;;;;;;;;;;;;;;5095893;28;20004;-82
2022/10/09 02:01:10;;;;;;;;;;;;;;;;;;5097487;28;20359;-83
2022/10/09 02:03:36;;;;;;;;;;;;;;;;;;5094332;28;19962;-82
2022/10/09 02:06:02;;;;;;;;;;;;;;;;;;5105399;28;19943;-83
2022/10/09 02:08:28;;;;;;;;;;;;;;;;;;5091467;28;19947;-83
2022/10/09 02:10:54;;;;;;;;;;;;;;;;;;5102978;28;19965;-83
2022/10/09 02:13:21;;;;;;;;;;;;;;;;;;5099967;28;19976;-83
2022/10/09 02:15:47;;;;;;;;;;;;;;;;;;5099114;28;19978;-82
2022/10/09 02:18:13;;;;;;;;;;;;;;;;;;5097652;28;20622;-83
2022/10/09 02:20:39;;;;;;;;;;;;;;;;;;5101946;28;19979;-83
2022/10/09 02:23:05;;;;;;;;;;;;;;;;;;5102118;28;19970;-83
2022/10/09 02:25:32;;;;;;;;;;;;;;;;;;5103288;28;19963;-82
2022/10/09 02:27:58;;;;;;;;;;;;;;;;;;5097732;28;19944;-82
2022/10/09 02:30:24;;;;;;;;;;;;;;;;;;5089261;28;19962;-82
2022/10/09 02:32:50;;;;;;;;;;;;;;;;;;5092688;28;19948;-81
2022/10/09 02:35:16;;;;;;;;;;;;;;;;;;5093517;28;20488;-83
2022/10/09 02:37:42;;;;;;;;;;;;;;;;;;5100712;28;19947;-83
2022/10/09 02:40:09;;;;;;;;;;;;;;;;;;5095919;28;20327;-82
2022/10/09 02:42:35;;;;;;;;;;;;;;;;;;5105620;28;19958;-82
2022/10/09 02:45:01;;;;;;;;;;;;;;;;;;5102337;28;20395;-83
2022/10/09 02:47:27;;;;;;;;;;;;;;;;;;5095083;28;19936;-83
2022/10/09 02:49:55;;;;;;;;;;;;;;;;;;5093513;28;19971;-82
2022/10/09 02:52:21;;;;;;;;;;;;;;;;;;5093595;28;19990;-82
2022/10/09 02:54:47;;;;;;;;;;;;;;;;;;5103513;28;19959;-82
2022/10/09 02:57:14;;;;;;;;;;;;;;;;;;5102892;28;20015;-83
2022/10/09 02:59:40;;;;;;;;;;;;;;;;;;5086324;28;19970;-83
2022/10/09 03:02:06;;;;;;;;;;;;;;;;;;5096829;28;19951;-83
2022/10/09 03:04:32;;;;;;;;;;;;;;;;;;5104223;28;19964;-83
2022/10/09 03:06:59;;;;;;;;;;;;;;;;;;5097454;28;19955;-83
2022/10/09 03:09:25;;;;;;;;;;;;;;;;;;5097717;28;20501;-83
2022/10/09 03:11:51;;;;;;;;;;;;;;;;;;5093824;28;19966;-82
2022/10/09 03:14:17;;;;;;;;;;;;;;;;;;5099071;28;20386;-83
2022/10/09 03:16:43;;;;;;;;;;;;;;;;;;5101060;28;19962;-82
2022/10/09 03:19:10;;;;;;;;;;;;;;;;;;5101566;28;19948;-82
2022/10/09 03:21:36;;;;;;;;;;;;;;;;;;5099401;28;20552;-82
2022/10/09 03:24:02;;;;;;;;;;;;;;;;;;5081903;28;20756;-82
2022/10/09 03:26:28;;;;;;;;;;;;;;;;;;5092804;28;19960;-82
2022/10/09 03:28:54;;;;;;;;;;;;;;;;;;5098146;28;20020;-82
2022/10/09 03:31:21;;;;;;;;;;;;;;;;;;5104459;28;19969;-83
2022/10/09 03:33:47;;;;;;;;;;;;;;;;;;5101296;28;19954;-82
2022/10/09 03:36:13;;;;;;;;;;;;;;;;;;5099157;28;19963;-82
2022/10/09 03:38:39;;;;;;;;;;;;;;;;;;5097325;28;19997;-82
2022/10/09 03:41:06;;;;;;;;;;;;;;;;;;5100194;28;19950;-82
2022/10/09 03:43:32;;;;;;;;;;;;;;;;;;5099545;28;20414;-83
2022/10/09 03:45:58;;;;;;;;;;;;;;;;;;5100544;28;19974;-82
2022/10/09 03:48:24;;;;;;;;;;;;;;;;;;5096442;28;19916;-82
2022/10/09 03:50:50;;;;;;;;;;;;;;;;;;5099847;28;19955;-81
2022/10/09 03:53:17;;;;;;;;;;;;;;;;;;5100717;28;20386;-82
2022/10/09 03:55:43;;;;;;;;;;;;;;;;;;5095965;28;19963;-81
2022/10/09 03:58:09;;;;;;;;;;;;;;;;;;5096501;28;19975;-82
2022/10/09 04:00:35;;;;;;;;;;;;;;;;;;5090514;28;19956;-82
2022/10/09 04:03:01;;;;;;;;;;;;;;;;;;5096000;28;19948;-82
2022/10/09 04:05:29;;;;;;;;;;;;;;;;;;5100053;28;19990;-82
2022/10/09 04:07:55;;;;;;;;;;;;;;;;;;5093580;28;19975;-82
2022/10/09 04:10:21;;;;;;;;;;;;;;;;;;5103373;28;20007;-83
2022/10/09 04:12:47;;;;;;;;;;;;;;;;;;5098608;28;20353;-82
2022/10/09 04:15:13;;;;;;;;;;;;;;;;;;5095270;28;19954;-83
2022/10/09 04:17:40;;;;;;;;;;;;;;;;;;5091607;28;20038;-84
2022/10/09 04:20:06;;;;;;;;;;;;;;;;;;5103344;28;19955;-82
2022/10/09 04:22:32;;;;;;;;;;;;;;;;;;5103271;28;19924;-82
2022/10/09 04:24:58;;;;;;;;;;;;;;;;;;5092665;28;19971;-82
2022/10/09 04:27:24;;;;;;;;;;;;;;;;;;5100907;28;19951;-82
2022/10/09 04:29:51;;;;;;;;;;;;;;;;;;5060019;28;20424;-82
2022/10/09 04:32:17;;;;;;;;;;;;;;;;;;5107943;28;19950;-82
2022/10/09 04:34:43;;;;;;;;;;;;;;;;;;5100856;28;20339;-79
2022/10/09 04:37:09;;;;;;;;;;;;;;;;;;5073789;28;20075;-83
2022/10/09 04:39:35;;;;;;;;;;;;;;;;;;5102204;28;19952;-83
2022/10/09 04:42:02;;;;;;;;;;;;;;;;;;5092864;28;19940;-83
2022/10/09 04:44:28;;;;;;;;;;;;;;;;;;5099754;28;19973;-83
2022/10/09 04:46:54;;;;;;;;;;;;;;;;;;5100468;28;19944;-83
2022/10/09 04:49:20;;;;;;;;;;;;;;;;;;5099717;28;20065;-83
2022/10/09 04:51:46;;;;;;;;;;;;;;;;;;5102418;28;20417;-81
2022/10/09 04:54:13;;;;;;;;;;;;;;;;;;5104409;28;19955;-82
2022/10/09 04:56:39;;;;;;;;;;;;;;;;;;5098669;28;19970;-82
2022/10/09 04:59:05;;;;;;;;;;;;;;;;;;5097690;28;19983;-82
2022/10/09 05:01:31;;;;;;;;;;;;;;;;;;5095638;28;20320;-83
2022/10/09 05:03:57;;;;;;;;;;;;;;;;;;5098848;28;20031;-83
2022/10/09 05:06:23;;;;;;;;;;;;;;;;;;5098705;28;19951;-83
2022/10/09 05:08:50;;;;;;;;;;;;;;;;;;5096254;28;19974;-81
2022/10/09 05:11:16;;;;;;;;;;;;;;;;;;5101749;28;19960;-83
2022/10/09 05:13:43;;;;;;;;;;;;;;;;;;5103011;28;19951;-83
2022/10/09 05:16:09;;;;;;;;;;;;;;;;;;5107210;28;20351;-83
2022/10/09 05:18:36;;;;;;;;;;;;;;;;;;5104179;28;19947;-82
2022/10/09 05:21:02;;;;;;;;;;;;;;;;;;5106769;28;19959;-82
2022/10/09 05:23:28;;;;;;;;;;;;;;;;;;5106403;28;20402;-82
2022/10/09 05:25:54;;;;;;;;;;;;;;;;;;5089543;28;19980;-82
2022/10/09 05:28:20;;;;;;;;;;;;;;;;;;5080810;28;19938;-83
2022/10/09 05:30:47;;;;;;;;;;;;;;;;;;5099751;28;19970;-83
2022/10/09 05:33:13;;;;;;;;;;;;;;;;;;5095234;28;20377;-82
2022/10/09 05:35:39;;;;;;;;;;;;;;;;;;5106466;27;19971;-83
2022/10/09 05:38:05;;;;;;;;;;;;;;;;;;5106781;28;19912;-82
2022/10/09 05:40:31;;;;;;;;;;;;;;;;;;5093642;28;19954;-83
2022/10/09 05:42:57;;;;;;;;;;;;;;;;;;5085111;28;20037;-82
2022/10/09 05:45:24;;;;;;;;;;;;;;;;;;5107054;28;19981;-82
2022/10/09 05:47:50;;;;;;;;;;;;;;;;;;5104326;28;20516;-81
2022/10/09 05:50:16;;;;;;;;;;;;;;;;;;5106612;28;19958;-82
2022/10/09 05:52:42;;;;;;;;;;;;;;;;;;5106534;28;19947;-83
2022/10/09 05:55:09;;;;;;;;;;;;;;;;;;5105243;28;20063;-82
2022/10/09 05:57:35;;;;;;;;;;;;;;;;;;5096095;28;19947;-83
2022/10/09 06:00:01;;;;;;;;;;;;;;;;;;5096769;28;19955;-81
2022/10/09 06:02:27;;;;;;;;;;;;;;;;;;5106225;28;19970;-83
2022/10/09 06:04:53;;;;;;;;;;;;;;;;;;5100808;28;19997;-83
2022/10/09 06:07:19;;;;;;;;;;;;;;;;;;5096222;28;19955;-82
2022/10/09 06:09:46;;;;;;;;;;;;;;;;;;5089599;28;19971;-83
2022/10/09 06:12:12;;;;;;;;;;;;;;;;;;5103334;28;19951;-83
2022/10/09 06:14:38;;;;;;;;;;;;;;;;;;5104576;28;19947;-83
2022/10/09 06:17:04;;;;;;;;;;;;;;;;;;5096185;27;19971;-83
2022/10/09 06:19:31;;;;;;;;;;;;;;;;;;5097872;28;19912;-82
2022/10/09 06:21:57;;;;;;;;;;;;;;;;;;5085742;28;19963;-83
2022/10/09 06:24:23;;;;;;;;;;;;;;;;;;5092951;28;19963;-82
2022/10/09 06:26:49;;;;;;;;;;;;;;;;;;5097405;28;19955;-82
2022/10/09 06:29:15;;;;;;;;;;;;;;;;;;5086495;28;19947;-82
2022/10/09 06:31:41;;;;;;;;;;;;;;;;;;5093660;28;19963;-83
2022/10/09 06:34:08;;;;;;;;;;;;;;;;;;5101415;28;19948;-83
2022/10/09 06:36:34;;;;;;;;;;;;;;;;;;5088274;28;20457;-82
2022/10/09 06:39:00;;;;;;;;;;;;;;;;;;5091309;28;20381;-83
2022/10/09 06:41:26;;;;;;;;;;;;;;;;;;5079829;28;19953;-83
2022/10/09 06:43:52;;;;;;;;;;;;;;;;;;5078495;28;20438;-83
2022/10/09 06:46:19;;;;;;;;;;;;;;;;;;5082280;28;19955;-83
2022/10/09 06:48:45;;;;;;;;;;;;;;;;;;5097630;28;19948;-82
2022/10/09 06:51:11;;;;;;;;;;;;;;;;;;5092411;28;19951;-83
2022/10/09 06:53:37;;;;;;;;;;;;;;;;;;5104920;28;20371;-83
2022/10/09 06:56:03;;;;;;;;;;;;;;;;;;5097975;28;19971;-83
2022/10/09 06:58:30;;;;;;;;;;;;;;;;;;5099941;28;19962;-83
2022/10/09 07:00:56;;;;;;;;;;;;;;;;;;5098739;28;19970;-83
2022/10/09 07:03:22;;;;;;;;;;;;;;;;;;5106002;28;19947;-83
2022/10/09 07:05:48;;;;;;;;;;;;;;;;;;5099029;28;19947;-83
2022/10/09 07:08:14;;;;;;;;;;;;;;;;;;5084573;28;20336;-83
2022/10/09 07:10:40;;;;;;;;;;;;;;;;;;5093070;28;19954;-82
2022/10/09 07:13:07;;;;;;;;;;;;;;;;;;5089566;28;20017;-83
2022/10/09 07:15:33;;;;;;;;;;;;;;;;;;5100934;28;19955;-83
2022/10/09 07:17:59;;;;;;;;;;;;;;;;;;5096132;28;19955;-83
2022/10/09 07:20:25;;;;;;;;;;;;;;;;;;5100737;28;19951;-82
2022/10/09 07:22:51;;;;;;;;;;;;;;;;;;5088579;28;20358;-83
2022/10/09 07:25:18;;;;;;;;;;;;;;;;;;5099434;28;19958;-83
2022/10/09 07:27:44;;;;;;;;;;;;;;;;;;5094159;28;19974;-82
2022/10/09 07:30:10;;;;;;;;;;;;;;;;;;5098583;28;21610;-82
2022/10/09 07:32:36;;;;;;;;;;;;;;;;;;5095408;28;20331;-82
2022/10/09 07:35:02;;;;;;;;;;;;;;;;;;5087513;28;19952;-82
2022/10/09 07:37:29;;;;;;;;;;;;;;;;;;5090292;28;19958;-81
2022/10/09 07:39:55;;;;;;;;;;;;;;;;;;5092907;28;19974;-81
2022/10/09 07:42:21;;;;;;;;;;;;;;;;;;5101493;28;19960;-81
2022/10/09 07:44:47;;;;;;;;;;;;;;;;;;5104709;28;21216;-82
2022/10/09 07:47:13;;;;;;;;;;;;;;;;;;5108730;28;19951;-82
2022/10/09 07:49:39;;;;;;;;;;;;;;;;;;5092495;28;19952;-81
2022/10/09 07:52:06;;;;;;;;;;;;;;;;;;5093974;28;20464;-82
2022/10/09 07:54:32;;;;;;;;;;;;;;;;;;5099916;28;19962;-82
2022/10/09 07:56:58;;;;;;;;;;;;;;;;;;5105449;28;19963;-82
2022/10/09 07:59:24;;;;;;;;;;;;;;;;;;5107252;28;19939;-81
2022/10/09 08:01:50;;;;;;;;;;;;;;;;;;5101973;28;19959;-80
2022/10/09 08:04:17;;;;;;;;;;;;;;;;;;5107519;28;19947;-82
2022/10/09 08:06:43;;;;;;;;;;;;;;;;;;5104230;28;19993;-82
2022/10/09 08:09:09;;;;;;;;;;;;;;;;;;5100526;28;20370;-82
2022/10/09 08:11:39;;;;;;;;;;;;;;;;;;5103866;28;20037;-82
2022/10/09 08:14:06;;;;;;;;;;;;;;;;;;5099206;28;19963;-82
2022/10/09 08:16:32;;;;;;;;;;;;;;;;;;5100421;28;19955;-83
2022/10/09 08:18:58;;;;;;;;;;;;;;;;;;5098297;28;19947;-82
2022/10/09 08:21:26;;;;;;;;;;;;;;;;;;5098740;28;20382;-82
2022/10/09 08:23:53;;;;;;;;;;;;;;;;;;5102074;28;19943;-82
2022/10/09 08:26:19;;;;;;;;;;;;;;;;;;5104602;28;20942;-83
2022/10/09 08:28:45;;;;;;;;;;;;;;;;;;5103531;28;20635;-81
2022/10/09 08:31:11;;;;;;;;;;;;;;;;;;5095958;28;19976;-83
2022/10/09 08:33:38;;;;;;;;;;;;;;;;;;5101218;28;19977;-83
2022/10/09 08:36:04;;;;;;;;;;;;;;;;;;5104233;28;19955;-82
2022/10/09 08:38:30;;;;;;;;;;;;;;;;;;5081554;28;19971;-83
2022/10/09 08:40:56;;;;;;;;;;;;;;;;;;5091213;28;19931;-82
2022/10/09 08:43:22;;;;;;;;;;;;;;;;;;5101269;28;20391;-82
2022/10/09 08:45:49;;;;;;;;;;;;;;;;;;5100910;28;19958;-82
2022/10/09 08:48:15;;;;;;;;;;;;;;;;;;5102248;28;19970;-84
2022/10/09 08:50:41;;;;;;;;;;;;;;;;;;5099448;28;20461;-82
2022/10/09 08:53:07;;;;;;;;;;;;;;;;;;5105655;28;19966;-82
2022/10/09 08:55:33;;;;;;;;;;;;;;;;;;5107272;28;19959;-82
2022/10/09 08:57:59;;;;;;;;;;;;;;;;;;5104136;28;19972;-82
2022/10/09 09:00:26;;;;;;;;;;;;;;;;;;5098492;28;19948;-81
2022/10/09 09:02:52;;;;;;;;;;;;;;;;;;5095428;28;19955;-81
2022/10/09 09:05:18;;;;;;;;;;;;;;;;;;5079285;28;19962;-82
2022/10/09 09:07:44;;;;;;;;;;;;;;;;;;5089799;28;19959;-82
2022/10/09 09:10:10;;;;;;;;;;;;;;;;;;5073605;28;19966;-82
2022/10/09 09:12:37;;;;;;;;;;;;;;;;;;5103090;28;19947;-84
2022/10/09 09:15:03;;;;;;;;;;;;;;;;;;5098537;28;19969;-83
2022/10/09 09:17:29;;;;;;;;;;;;;;;;;;5102465;28;20434;-83
2022/10/09 09:19:55;;;;;;;;;;;;;;;;;;5087651;28;19966;-82
2022/10/09 09:22:23;;;;;;;;;;;;;;;;;;5100808;28;19970;-82
2022/10/09 09:24:49;;;;;;;;;;;;;;;;;;5100049;28;20026;-82
2022/10/09 09:27:15;;;;;;;;;;;;;;;;;;5084144;28;19966;-83
2022/10/09 09:29:41;;;;;;;;;;;;;;;;;;5105242;28;19955;-83
2022/10/09 09:32:08;;;;;;;;;;;;;;;;;;5105067;28;19955;-83
2022/10/09 09:34:34;;;;;;;;;;;;;;;;;;5099204;28;19950;-83
2022/10/09 09:37:00;;;;;;;;;;;;;;;;;;5100498;28;19947;-83
2022/10/09 09:39:26;;;;;;;;;;;;;;;;;;5104105;28;19962;-82
2022/10/09 09:41:52;;;;;;;;;;;;;;;;;;5099542;28;19969;-82
2022/10/09 09:44:19;;;;;;;;;;;;;;;;;;5106202;28;20437;-82
2022/10/09 09:46:45;;;;;;;;;;;;;;;;;;5104537;28;20324;-78
2022/10/09 09:49:11;;;;;;;;;;;;;;;;;;5084299;28;19958;-83
2022/10/09 09:51:37;;;;;;;;;;;;;;;;;;5100741;28;19955;-83
2022/10/09 09:54:03;;;;;;;;;;;;;;;;;;5101669;28;19943;-83
2022/10/09 09:56:29;;;;;;;;;;;;;;;;;;5103137;28;19962;-83
2022/10/09 09:58:56;;;;;;;;;;;;;;;;;;5103317;28;20386;-82
2022/10/09 10:01:22;;;;;;;;;;;;;;;;;;5086766;28;19947;-82
2022/10/09 10:03:49;;;;;;;;;;;;;;;;;;5098144;28;19990;-83
2022/10/09 10:06:15;;;;;;;;;;;;;;;;;;5103173;28;20034;-83
2022/10/09 10:08:41;;;;;;;;;;;;;;;;;;5102888;28;20344;-83
2022/10/09 10:11:07;;;;;;;;;;;;;;;;;;5103566;28;19970;-82
2022/10/09 10:13:34;;;;;;;;;;;;;;;;;;5104735;28;20375;-82
2022/10/09 10:16:00;;;;;;;;;;;;;;;;;;5101454;28;20383;-83
2022/10/09 10:18:27;;;;;;;;;;;;;;;;;;5103337;28;19962;-82
2022/10/09 10:20:53;;;;;;;;;;;;;;;;;;5101046;28;20434;-82
2022/10/09 10:23:19;;;;;;;;;;;;;;;;;;5099404;28;19978;-84
2022/10/09 10:25:46;;;;;;;;;;;;;;;;;;5091178;28;19997;-81
2022/10/09 10:28:12;;;;;;;;;;;;;;;;;;5089221;28;20497;-81
2022/10/09 10:30:38;;;;;;;;;;;;;;;;;;5102528;28;19993;-81
2022/10/09 10:33:04;;;;;;;;;;;;;;;;;;5106247;28;20397;-83
2022/10/09 10:35:30;;;;;;;;;;;;;;;;;;5102854;28;19959;-83
2022/10/09 10:37:56;;;;;;;;;;;;;;;;;;5093486;28;19951;-84
2022/10/09 10:40:23;;;;;;;;;;;;;;;;;;5080380;28;19959;-83
2022/10/09 10:42:49;;;;;;;;;;;;;;;;;;5102577;28;19961;-83
2022/10/09 10:45:16;;;;;;;;;;;;;;;;;;5105658;28;19947;-83
2022/10/09 10:47:42;;;;;;;;;;;;;;;;;;5082437;28;19951;-84
2022/10/09 10:50:08;;;;;;;;;;;;;;;;;;5101461;28;19971;-83
2022/10/09 10:52:34;;;;;;;;;;;;;;;;;;5093077;28;19954;-84
2022/10/09 10:55:01;;;;;;;;;;;;;;;;;;5074601;28;20637;-84
2022/10/09 10:57:27;;;;;;;;;;;;;;;;;;5088145;28;19967;-85
2022/10/09 10:59:53;;;;;;;;;;;;;;;;;;5097746;28;19962;-83
2022/10/09 11:02:19;;;;;;;;;;;;;;;;;;5105907;27;20425;-84
2022/10/09 11:04:46;;;;;;;;;;;;;;;;;;5091232;28;19966;-84
2022/10/09 11:07:12;;;;;;;;;;;;;;;;;;5090332;28;19955;-84
2022/10/09 11:09:39;;;;;;;;;;;;;;;;;;5088846;28;20379;-86
2022/10/09 11:12:05;;;;;;;;;;;;;;;;;;5096430;28;19967;-86
2022/10/09 11:14:31;;;;;;;;;;;;;;;;;;5095656;28;20362;-82
2022/10/09 11:16:57;;;;;;;;;;;;;;;;;;5094017;28;19973;-78
2022/10/09 11:19:23;;;;;;;;;;;;;;;;;;5077640;28;20704;-77
2022/10/09 11:21:49;;;;;;;;;;;;;;;;;;5096215;28;19961;-78
2022/10/09 11:24:16;;;;;;;;;;;;;;;;;;5100715;28;20386;-78
2022/10/09 11:26:42;;;;;;;;;;;;;;;;;;5100334;28;19959;-80
2022/10/09 11:29:09;;;;;;;;;;;;;;;;;;5096069;28;19985;-78
2022/10/09 11:31:35;;;;;;;;;;;;;;;;;;5090684;28;20539;-77
2022/10/09 11:34:01;;;;;;;;;;;;;;;;;;5096091;28;19951;-77
2022/10/09 11:36:27;;;;;;;;;;;;;;;;;;5089488;28;20399;-78
2022/10/09 11:38:53;;;;;;;;;;;;;;;;;;5095805;28;20018;-78
2022/10/09 11:41:19;;;;;;;;;;;;;;;;;;5078026;28;19916;-77
2022/10/09 11:43:46;;;;;;;;;;;;;;;;;;5089549;28;19964;-77
2022/10/09 11:46:12;;;;;;;;;;;;;;;;;;5099505;28;20359;-77
2022/10/09 11:48:38;;;;;;;;;;;;;;;;;;5096196;28;19961;-78
2022/10/09 11:51:04;;;;;;;;;;;;;;;;;;5087966;28;20399;-77
2022/10/09 11:53:33;;;;;;;;;;;;;;;;;;5096519;28;19968;-77
2022/10/09 11:55:59;;;;;;;;;;;;;;;;;;5091236;28;19958;-76
2022/10/09 11:58:25;;;;;;;;;;;;;;;;;;5092698;28;19947;-77
2022/10/09 12:00:52;;;;;;;;;;;;;;;;;;5105131;28;20348;-77
2022/10/09 12:03:18;;;;;;;;;;;;;;;;;;5099786;28;19923;-77
2022/10/09 12:05:45;;;;;;;;;;;;;;;;;;5092568;28;20406;-77
2022/10/09 12:08:11;;;;;;;;;;;;;;;;;;5080826;28;19915;-77
2022/10/09 12:10:37;;;;;;;;;;;;;;;;;;5101940;28;19962;-77
2022/10/09 12:13:03;;;;;;;;;;;;;;;;;;5080231;28;19948;-77
2022/10/09 12:15:29;;;;;;;;;;;;;;;;;;5100179;28;20363;-78
2022/10/09 12:17:55;;;;;;;;;;;;;;;;;;5088696;28;19975;-78
2022/10/09 12:20:22;;;;;;;;;;;;;;;;;;5102204;28;19956;-79
2022/10/09 12:22:48;;;;;;;;;;;;;;;;;;5082689;28;19916;-78
2022/10/09 12:25:14;;;;;;;;;;;;;;;;;;5092875;28;19947;-78
2022/10/09 12:27:40;;;;;;;;;;;;;;;;;;5097720;28;19954;-77
2022/10/09 12:30:06;;;;;;;;;;;;;;;;;;5087716;28;20375;-77
2022/10/09 12:32:33;;;;;;;;;;;;;;;;;;5103329;28;19956;-77
2022/10/09 12:34:59;;;;;;;;;;;;;;;;;;5094151;28;20001;-78
2022/10/09 12:37:25;;;;;;;;;;;;;;;;;;5103793;28;19971;-78
2022/10/09 12:39:51;;;;;;;;;;;;;;;;;;5103506;28;19944;-78
2022/10/09 12:42:17;;;;;;;;;;;;;;;;;;5105674;28;19985;-77
2022/10/09 12:44:44;;;;;;;;;;;;;;;;;;5103008;28;20403;-78
2022/10/09 12:47:10;;;;;;;;;;;;;;;;;;5101165;28;19963;-78
2022/10/09 12:49:37;;;;;;;;;;;;;;;;;;5100837;28;20391;-76
2022/10/09 12:52:03;;;;;;;;;;;;;;;;;;5102387;28;20335;-78
2022/10/09 12:54:29;;;;;;;;;;;;;;;;;;5092430;28;19947;-78
2022/10/09 12:56:55;;;;;;;;;;;;;;;;;;5098424;28;19978;-78
2022/10/09 12:59:22;;;;;;;;;;;;;;;;;;5100798;28;19938;-78
2022/10/09 13:01:48;;;;;;;;;;;;;;;;;;5095094;28;19962;-78
2022/10/09 13:04:14;;;;;;;;;;;;;;;;;;5104924;28;19982;-77
2022/10/09 13:06:40;;;;;;;;;;;;;;;;;;5099498;28;19955;-77
2022/10/09 13:09:06;;;;;;;;;;;;;;;;;;5093660;28;20362;-77
2022/10/09 13:11:33;;;;;;;;;;;;;;;;;;5107814;28;20404;-78
2022/10/09 13:13:59;;;;;;;;;;;;;;;;;;5098304;28;19963;-77
2022/10/09 13:16:25;;;;;;;;;;;;;;;;;;5100309;28;19958;-78
2022/10/09 13:18:51;;;;;;;;;;;;;;;;;;5084677;28;19943;-78
2022/10/09 13:21:19;;;;;;;;;;;;;;;;;;5099357;28;20065;-77
2022/10/09 13:23:45;;;;;;;;;;;;;;;;;;5104552;28;19956;-77
2022/10/09 13:26:11;;;;;;;;;;;;;;;;;;5094192;28;20467;-77
2022/10/09 13:28:38;;;;;;;;;;;;;;;;;;5101286;28;20375;-78
2022/10/09 13:31:04;;;;;;;;;;;;;;;;;;5095995;28;19958;-78
2022/10/09 13:33:30;;;;;;;;;;;;;;;;;;5102361;28;19924;-78
2022/10/09 13:35:56;;;;;;;;;;;;;;;;;;5098550;28;19959;-78
2022/10/09 13:38:23;;;;;;;;;;;;;;;;;;5101772;28;20365;-78
2022/10/09 13:40:49;;;;;;;;;;;;;;;;;;5076920;28;19943;-78
2022/10/09 13:43:15;;;;;;;;;;;;;;;;;;5100317;28;19943;-78
2022/10/09 13:45:42;;;;;;;;;;;;;;;;;;5097874;28;19974;-78
2022/10/09 13:48:08;;;;;;;;;;;;;;;;;;5101323;28;19916;-78
2022/10/09 13:50:34;;;;;;;;;;;;;;;;;;5098294;28;19973;-77
2022/10/09 13:53:00;;;;;;;;;;;;;;;;;;5101533;28;19955;-78
2022/10/09 13:55:27;;;;;;;;;;;;;;;;;;5101640;28;19959;-78
2022/10/09 13:57:54;;;;;;;;;;;;;;;;;;5095920;28;19979;-77
2022/10/09 14:00:20;;;;;;;;;;;;;;;;;;5091801;28;19959;-78
2022/10/09 14:02:46;;;;;;;;;;;;;;;;;;5101592;28;19962;-78
2022/10/09 14:05:12;;;;;;;;;;;;;;;;;;5100538;28;20429;-77
2022/10/09 14:07:38;;;;;;;;;;;;;;;;;;5093493;28;19955;-78
2022/10/09 14:10:05;;;;;;;;;;;;;;;;;;5093416;28;19959;-78
2022/10/09 14:12:31;;;;;;;;;;;;;;;;;;5082830;28;19970;-77
2022/10/09 14:14:57;;;;;;;;;;;;;;;;;;5100942;28;19966;-78
2022/10/09 14:17:23;;;;;;;;;;;;;;;;;;5096365;28;19955;-78
2022/10/09 14:19:49;;;;;;;;;;;;;;;;;;5095987;28;19959;-78
2022/10/09 14:22:16;;;;;;;;;;;;;;;;;;5097247;28;19955;-77
2022/10/09 14:24:42;;;;;;;;;;;;;;;;;;5096202;28;19966;-84
2022/10/09 14:27:08;;;;;;;;;;;;;;;;;;5091563;28;20387;-78
2022/10/09 14:29:36;;;;;;;;;;;;;;;;;;5096225;28;19973;-78
2022/10/09 14:32:02;;;;;;;;;;;;;;;;;;5098008;28;19959;-80
2022/10/09 14:34:28;;;;;;;;;;;;;;;;;;5100897;28;19966;-78
2022/10/09 14:36:54;;;;;;;;;;;;;;;;;;5099489;28;19978;-76
2022/10/09 14:39:20;;;;;;;;;;;;;;;;;;5099368;28;19955;-76
2022/10/09 14:41:47;;;;;;;;;;;;;;;;;;5097109;28;19962;-78
2022/10/09 14:44:13;;;;;;;;;;;;;;;;;;5095642;28;20021;-77
2022/10/09 14:46:39;;;;;;;;;;;;;;;;;;5100655;28;19966;-75
2022/10/09 14:49:09;;;;;;;;;;;;;;;;;;5096460;28;20015;-76
2022/10/09 14:51:35;;;;;;;;;;;;;;;;;;5099430;28;19962;-78
2022/10/09 14:54:01;;;;;;;;;;;;;;;;;;5097975;28;19958;-79
2022/10/09 14:56:27;;;;;;;;;;;;;;;;;;5086241;28;19963;-78
2022/10/09 14:58:53;;;;;;;;;;;;;;;;;;5082955;28;20837;-77
2022/10/09 15:01:20;;;;;;;;;;;;;;;;;;5095649;28;20582;-78
2022/10/09 15:03:47;;;;;;;;;;;;;;;;;;5094269;28;20375;-77
2022/10/09 15:06:13;;;;;;;;;;;;;;;;;;5096499;28;21568;-75
2022/10/09 15:08:39;;;;;;;;;;;;;;;;;;5096995;28;19947;-77
2022/10/09 15:11:05;;;;;;;;;;;;;;;;;;5101162;28;20382;-76
2022/10/09 15:13:32;;;;;;;;;;;;;;;;;;5078283;28;19939;-77
2022/10/09 15:15:59;;;;;;;;;;;;;;;;;;5083630;28;19954;-77
2022/10/09 15:18:25;;;;;;;;;;;;;;;;;;5079769;28;20379;-78
2022/10/09 15:20:51;;;;;;;;;;;;;;;;;;5099075;28;20360;-78
2022/10/09 15:23:18;;;;;;;;;;;;;;;;;;5095613;28;19970;-79
2022/10/09 15:25:44;;;;;;;;;;;;;;;;;;5095268;28;20341;-78
2022/10/09 15:28:10;;;;;;;;;;;;;;;;;;5081765;28;20014;-79
2022/10/09 15:30:36;;;;;;;;;;;;;;;;;;5093694;28;19923;-78
2022/10/09 15:33:02;;;;;;;;;;;;;;;;;;5093535;28;19924;-78
2022/10/09 15:35:29;;;;;;;;;;;;;;;;;;5096804;28;19962;-78
2022/10/09 15:37:57;;;;;;;;;;;;;;;;;;5096590;28;20018;-78
2022/10/09 15:40:24;;;;;;;;;;;;;;;;;;5076401;28;19922;-78
2022/10/09 15:42:50;;;;;;;;;;;;;;;;;;5095309;28;19959;-78
2022/10/09 15:45:16;;;;;;;;;;;;;;;;;;5099035;28;19951;-78
2022/10/09 15:47:42;;;;;;;;;;;;;;;;;;5096965;28;19959;-78
2022/10/09 15:50:08;;;;;;;;;;;;;;;;;;5095112;28;20362;-78
2022/10/09 15:52:35;;;;;;;;;;;;;;;;;;5095583;28;19955;-78
2022/10/09 15:55:01;;;;;;;;;;;;;;;;;;5094671;28;20364;-78
2022/10/09 15:57:27;;;;;;;;;;;;;;;;;;5097756;28;20011;-77
2022/10/09 15:59:53;;;;;;;;;;;;;;;;;;5096871;28;19967;-81
2022/10/09 16:02:19;;;;;;;;;;;;;;;;;;5098029;28;19966;-80
2022/10/09 16:04:45;;;;;;;;;;;;;;;;;;5096874;28;20402;-80
2022/10/09 16:07:12;;;;;;;;;;;;;;;;;;5100850;28;21113;-80
2022/10/09 16:09:38;;;;;;;;;;;;;;;;;;5102537;28;19955;-79
2022/10/09 16:12:04;;;;;;;;;;;;;;;;;;5083626;28;20035;-80
2022/10/09 16:14:30;;;;;;;;;;;;;;;;;;5103530;28;19955;-80
2022/10/09 16:16:57;;;;;;;;;;;;;;;;;;5084412;28;19932;-80
2022/10/09 16:19:23;;;;;;;;;;;;;;;;;;5084944;28;19952;-80
2022/10/09 16:21:49;;;;;;;;;;;;;;;;;;5102379;28;20077;-80
2022/10/09 16:24:15;;;;;;;;;;;;;;;;;;5103014;28;19970;-80
2022/10/09 16:26:41;;;;;;;;;;;;;;;;;;5103687;28;19955;-81
2022/10/09 16:29:07;;;;;;;;;;;;;;;;;;5098011;28;20092;-80
2022/10/09 16:31:34;;;;;;;;;;;;;;;;;;5103631;28;19971;-79
2022/10/09 16:34:00;;;;;;;;;;;;;;;;;;5100379;28;19978;-79
2022/10/09 16:36:26;;;;;;;;;;;;;;;;;;5105499;28;19976;-80
2022/10/09 16:38:52;;;;;;;;;;;;;;;;;;5099024;28;20038;-79